Time;durP1;ratioP1;P1;durP2;ratioP2;P2;SDS_P1;SDS_P2;PMS_P1;PMS_P2;Temp;Humidity;BMP_temperature;BMP_pressure;BME280_temperature;BME280_humidity;BME280_pressure;Samples;Min_cycle;Max_cycle;Signal;HPM_P1;HPM_P2
2021/12/09 00:01:22;;;;;;;10.52;5.57;;;;;;;;;;5013803;28;20082;-61
2021/12/09 00:03:50;;;;;;;16.45;6.85;;;;;;;;;;5028493;28;20092;-61
2021/12/09 00:06:21;;;;;;;13.75;6.40;;;;;;;;;;5011891;28;20037;-60
2021/12/09 00:08:47;;;;;;;13.38;6.82;;;;;;;;;;5012438;28;20622;-61
2021/12/09 00:11:13;;;;;;;14.90;6.85;;;;;;;;;;5026190;28;20060;-60
2021/12/09 00:13:39;;;;;;;16.70;7.97;;;;;;;;;;5010427;28;20041;-60
2021/12/09 00:16:05;;;;;;;15.13;6.93;;;;;;;;;;5010783;28;20496;-60
2021/12/09 00:18:31;;;;;;;15.30;7.00;;;;;;;;;;5011825;28;20069;-60
2021/12/09 00:20:57;;;;;;;10.73;6.55;;;;;;;;;;5012054;28;20053;-60
2021/12/09 00:23:23;;;;;;;12.43;6.55;;;;;;;;;;5012933;28;20041;-59
2021/12/09 00:25:50;;;;;;;14.32;7.18;;;;;;;;;;5012181;28;20121;-59
2021/12/09 00:28:16;;;;;;;13.27;6.10;;;;;;;;;;5011481;28;20049;-59
2021/12/09 00:30:42;;;;;;;16.15;7.03;;;;;;;;;;5012057;28;20038;-59
2021/12/09 00:33:10;;;;;;;14.85;7.18;;;;;;;;;;5012650;28;20046;-59
2021/12/09 00:35:51;;;;;;;14.70;7.95;;;;;;;;;;5011778;28;20077;-59
2021/12/09 00:38:34;;;;;;;16.02;6.13;;;;;;;;;;5010790;28;20265;-61
2021/12/09 00:41:01;;;;;;;16.80;7.90;;;;;;;;;;5012598;28;20034;-59
2021/12/09 00:43:27;;;;;;;13.52;7.70;;;;;;;;;;5011715;28;20050;-59
2021/12/09 00:45:54;;;;;;;15.13;8.13;;;;;;;;;;5012249;28;20046;-60
2021/12/09 00:48:21;;;;;;;12.57;8.25;;;;;;;;;;5011288;28;20045;-60
2021/12/09 00:50:47;;;;;;;15.00;8.60;;;;;;;;;;5012685;28;20050;-59
2021/12/09 00:53:13;;;;;;;15.75;8.00;;;;;;;;;;5010251;28;20053;-60
2021/12/09 00:55:39;;;;;;;14.85;7.90;;;;;;;;;;5012196;28;20034;-60
2021/12/09 00:58:05;;;;;;;17.73;7.13;;;;;;;;;;5011102;28;20399;-60
2021/12/09 01:00:32;;;;;;;12.90;7.38;;;;;;;;;;5012065;28;20050;-60
2021/12/09 01:02:59;;;;;;;13.85;7.05;;;;;;;;;;5011565;28;20030;-60
2021/12/09 01:05:26;;;;;;;16.05;8.55;;;;;;;;;;5012000;28;20132;-60
2021/12/09 01:07:52;;;;;;;16.58;8.98;;;;;;;;;;5027436;28;20498;-60
2021/12/09 01:10:18;;;;;;;18.88;9.38;;;;;;;;;;5011622;28;20041;-60
2021/12/09 01:12:45;;;;;;;14.63;8.80;;;;;;;;;;5027525;28;20041;-60
2021/12/09 01:15:13;;;;;;;16.02;8.95;;;;;;;;;;4992972;28;20455;-60
2021/12/09 01:17:39;;;;;;;15.77;8.40;;;;;;;;;;5009130;28;20053;-60
2021/12/09 01:20:06;;;;;;;19.55;9.43;;;;;;;;;;5010755;28;20447;-60
2021/12/09 01:22:53;;;;;;;15.00;8.30;;;;;;;;;;4993086;28;20041;-59
2021/12/09 01:25:19;;;;;;;13.50;7.75;;;;;;;;;;5009488;28;20041;-61
2021/12/09 01:27:46;;;;;;;18.75;9.63;;;;;;;;;;5010290;28;20037;-61
2021/12/09 01:30:16;;;;;;;20.73;9.55;;;;;;;;;;5008664;28;20058;-62
2021/12/09 01:32:48;;;;;;;14.93;9.70;;;;;;;;;;5008666;28;20052;-61
2021/12/09 01:35:15;;;;;;;14.73;8.55;;;;;;;;;;5008579;28;20076;-60
2021/12/09 01:37:41;;;;;;;20.98;10.98;;;;;;;;;;5009904;28;20054;-60
2021/12/09 01:40:08;;;;;;;19.90;10.70;;;;;;;;;;5009888;28;20081;-60
2021/12/09 01:42:35;;;;;;;17.80;10.15;;;;;;;;;;5010071;28;20038;-60
2021/12/09 01:45:01;;;;;;;18.90;9.63;;;;;;;;;;5009874;28;20475;-60
2021/12/09 01:47:27;;;;;;;17.98;10.57;;;;;;;;;;4992698;28;20041;-61
2021/12/09 01:49:54;;;;;;;18.02;10.38;;;;;;;;;;5008474;28;20061;-61
2021/12/09 01:52:20;;;;;;;23.30;11.35;;;;;;;;;;4992682;28;20400;-60
2021/12/09 01:54:46;;;;;;;17.42;11.25;;;;;;;;;;5010290;28;20502;-60
2021/12/09 01:57:12;;;;;;;20.85;12.98;;;;;;;;;;5009045;28;20421;-60
2021/12/09 01:59:38;;;;;;;26.75;12.43;;;;;;;;;;5008341;28;20088;-62
2021/12/09 02:02:05;;;;;;;26.92;13.20;;;;;;;;;;5010083;28;20038;-60
2021/12/09 02:04:32;;;;;;;22.45;13.30;;;;;;;;;;5008353;28;20061;-60
2021/12/09 02:06:58;;;;;;;22.48;12.90;;;;;;;;;;5008315;28;20042;-60
2021/12/09 02:09:24;;;;;;;25.58;11.82;;;;;;;;;;5007966;28;20052;-60
2021/12/09 02:11:50;;;;;;;21.20;12.82;;;;;;;;;;5009688;28;20030;-60
2021/12/09 02:14:16;;;;;;;21.60;12.65;;;;;;;;;;5018827;28;20346;-60
2021/12/09 02:16:44;;;;;;;22.27;12.98;;;;;;;;;;5009663;28;20037;-60
2021/12/09 02:19:12;;;;;;;18.95;12.88;;;;;;;;;;5010719;28;20083;-60
2021/12/09 02:21:38;;;;;;;22.45;12.95;;;;;;;;;;5010113;28;20567;-61
2021/12/09 02:24:06;;;;;;;21.52;13.05;;;;;;;;;;5008875;28;20075;-61
2021/12/09 02:26:34;;;;;;;23.63;14.13;;;;;;;;;;4991625;28;20290;-61
2021/12/09 02:29:00;;;;;;;19.35;13.80;;;;;;;;;;5008306;28;20574;-61
2021/12/09 02:31:28;;;;;;;28.60;16.00;;;;;;;;;;4990858;28;20041;-61
2021/12/09 02:33:54;;;;;;;20.25;13.82;;;;;;;;;;5007270;28;20034;-62
2021/12/09 02:36:21;;;;;;;24.60;14.73;;;;;;;;;;5008463;28;20042;-61
2021/12/09 02:38:49;;;;;;;22.10;15.02;;;;;;;;;;5008263;28;20565;-61
2021/12/09 02:41:18;;;;;;;23.67;14.88;;;;;;;;;;5007144;28;20124;-61
2021/12/09 02:43:46;;;;;;;23.88;14.77;;;;;;;;;;5006976;28;20049;-62
2021/12/09 02:46:12;;;;;;;24.50;14.45;;;;;;;;;;5012202;28;20399;-61
2021/12/09 02:48:38;;;;;;;26.85;15.45;;;;;;;;;;5008200;28;20058;-62
2021/12/09 02:51:06;;;;;;;26.38;16.45;;;;;;;;;;5007140;28;20077;-61
2021/12/09 02:53:32;;;;;;;23.38;14.63;;;;;;;;;;5007028;28;20474;-63
2021/12/09 02:55:58;;;;;;;25.88;17.90;;;;;;;;;;5001111;28;20081;-61
2021/12/09 02:58:25;;;;;;;33.13;18.33;;;;;;;;;;5006879;28;20046;-62
2021/12/09 03:00:57;;;;;;;24.35;16.83;;;;;;;;;;4991220;28;20058;-61
2021/12/09 03:03:23;;;;;;;25.08;15.50;;;;;;;;;;5007975;28;20045;-62
2021/12/09 03:05:52;;;;;;;30.13;17.13;;;;;;;;;;5008369;28;20117;-61
2021/12/09 03:08:23;;;;;;;24.50;17.85;;;;;;;;;;5006649;28;20157;-62
2021/12/09 03:10:49;;;;;;;28.45;16.85;;;;;;;;;;5006701;28;20436;-63
2021/12/09 03:13:16;;;;;;;26.00;16.95;;;;;;;;;;4990594;28;20141;-61
2021/12/09 03:15:42;;;;;;;26.20;17.75;;;;;;;;;;5006368;28;20045;-61
2021/12/09 03:18:09;;;;;;;29.27;16.83;;;;;;;;;;5006363;28;20048;-61
2021/12/09 03:20:35;;;;;;;24.48;17.95;;;;;;;;;;5008179;28;20042;-61
2021/12/09 03:23:01;;;;;;;22.63;15.80;;;;;;;;;;5006401;28;20122;-62
2021/12/09 03:25:27;;;;;;;27.15;17.48;;;;;;;;;;5005832;28;20062;-61
2021/12/09 03:27:53;;;;;;;30.15;17.35;;;;;;;;;;5007872;28;20053;-62
2021/12/09 03:30:20;;;;;;;32.55;18.92;;;;;;;;;;5006592;28;20034;-62
2021/12/09 03:32:47;;;;;;;28.50;18.75;;;;;;;;;;5006263;28;20553;-61
2021/12/09 03:35:13;;;;;;;26.95;19.10;;;;;;;;;;5007403;28;20467;-62
2021/12/09 03:37:40;;;;;;;26.50;17.80;;;;;;;;;;5015074;28;20038;-62
2021/12/09 03:40:07;;;;;;;28.58;19.45;;;;;;;;;;5007808;28;20062;-61
2021/12/09 03:42:34;;;;;;;35.17;19.58;;;;;;;;;;5006548;28;20538;-61
2021/12/09 03:45:00;;;;;;;29.63;18.17;;;;;;;;;;5005666;28;20053;-63
2021/12/09 03:47:28;;;;;;;28.23;19.92;;;;;;;;;;5007491;28;20046;-62
2021/12/09 03:49:54;;;;;;;28.00;18.45;;;;;;;;;;5022822;28;20412;-61
2021/12/09 03:52:20;;;;;;;29.52;19.98;;;;;;;;;;5005847;28;20112;-61
2021/12/09 03:54:47;;;;;;;25.15;17.27;;;;;;;;;;4990321;28;20042;-61
2021/12/09 03:57:14;;;;;;;29.77;19.58;;;;;;;;;;5005974;28;20052;-61
2021/12/09 03:59:41;;;;;;;29.80;18.58;;;;;;;;;;5014652;28;20407;-60
2021/12/09 04:02:07;;;;;;;35.85;21.17;;;;;;;;;;4989855;28;20137;-59
2021/12/09 04:04:33;;;;;;;28.73;18.52;;;;;;;;;;5008078;28;20038;-59
2021/12/09 04:06:59;;;;;;;27.60;19.27;;;;;;;;;;5006454;28;20411;-59
2021/12/09 04:09:26;;;;;;;33.60;22.15;;;;;;;;;;5007630;28;20463;-60
2021/12/09 04:11:52;;;;;;;33.03;20.23;;;;;;;;;;5006032;28;20038;-59
2021/12/09 04:14:19;;;;;;;33.38;22.38;;;;;;;;;;5008043;28;20041;-60
2021/12/09 04:16:46;;;;;;;37.30;22.98;;;;;;;;;;5007723;28;20034;-60
2021/12/09 04:19:13;;;;;;;31.08;18.50;;;;;;;;;;5005842;28;20050;-60
2021/12/09 04:21:40;;;;;;;30.38;20.92;;;;;;;;;;5007775;28;20042;-60
2021/12/09 04:24:10;;;;;;;32.55;21.63;;;;;;;;;;5006938;28;20056;-60
2021/12/09 04:26:38;;;;;;;29.80;20.85;;;;;;;;;;5023134;28;20045;-60
2021/12/09 04:29:05;;;;;;;31.48;20.35;;;;;;;;;;5008067;28;20038;-61
2021/12/09 04:31:31;;;;;;;31.60;21.95;;;;;;;;;;4989027;28;20117;-61
2021/12/09 04:33:57;;;;;;;29.92;21.85;;;;;;;;;;5005742;28;20533;-61
2021/12/09 04:36:25;;;;;;;26.80;19.35;;;;;;;;;;5007316;28;20044;-61
2021/12/09 04:38:52;;;;;;;34.72;22.90;;;;;;;;;;5005364;28;20049;-61
2021/12/09 04:41:19;;;;;;;30.48;20.92;;;;;;;;;;5005552;28;20124;-61
2021/12/09 04:43:45;;;;;;;30.90;21.50;;;;;;;;;;5005829;28;20151;-61
2021/12/09 04:46:11;;;;;;;28.88;20.58;;;;;;;;;;5007526;28;20053;-61
2021/12/09 04:48:38;;;;;;;29.83;20.10;;;;;;;;;;5008504;28;20068;-62
2021/12/09 04:51:04;;;;;;;31.55;21.73;;;;;;;;;;5009097;28;20054;-61
2021/12/09 04:53:30;;;;;;;34.90;23.33;;;;;;;;;;5010464;28;20117;-61
2021/12/09 04:55:57;;;;;;;32.63;22.52;;;;;;;;;;5009177;28;20084;-61
2021/12/09 04:58:23;;;;;;;29.90;21.42;;;;;;;;;;5009234;28;20059;-61
2021/12/09 05:00:51;;;;;;;32.20;20.83;;;;;;;;;;5008636;28;20054;-61
2021/12/09 05:03:17;;;;;;;34.10;21.17;;;;;;;;;;5009126;28;20050;-61
2021/12/09 05:05:47;;;;;;;32.50;19.90;;;;;;;;;;5008760;28;20041;-62
2021/12/09 05:08:16;;;;;;;37.03;21.73;;;;;;;;;;5024187;28;20419;-61
2021/12/09 05:13:37;;;;;;;30.35;19.55;;;;;;;;;;5007975;28;20082;-61
2021/12/09 05:16:04;;;;;;;29.10;19.92;;;;;;;;;;5009070;28;20034;-60
2021/12/09 05:18:32;;;;;;;32.97;20.23;;;;;;;;;;5010485;28;20046;-62
2021/12/09 05:20:59;;;;;;;29.88;20.50;;;;;;;;;;5006859;28;20136;-61
2021/12/09 05:23:26;;;;;;;36.58;21.75;;;;;;;;;;5008263;28;20041;-61
2021/12/09 05:25:52;;;;;;;31.65;20.83;;;;;;;;;;5008103;28;20038;-61
2021/12/09 05:28:19;;;;;;;31.98;18.50;;;;;;;;;;4992058;28;20137;-61
2021/12/09 05:33:34;;;;;;;30.33;19.23;;;;;;;;;;5023459;28;20120;-61
2021/12/09 05:36:01;;;;;;;34.28;19.83;;;;;;;;;;5008394;28;20070;-61
2021/12/09 05:38:27;;;;;;;29.10;18.15;;;;;;;;;;4992556;28;20466;-61
2021/12/09 05:40:53;;;;;;;31.60;21.10;;;;;;;;;;5008594;28;20050;-61
2021/12/09 05:43:19;;;;;;;33.40;21.70;;;;;;;;;;5008058;28;20133;-61
2021/12/09 05:45:46;;;;;;;33.63;20.65;;;;;;;;;;4991648;28;20046;-61
2021/12/09 05:48:13;;;;;;;32.78;21.42;;;;;;;;;;5009601;28;20530;-61
2021/12/09 05:50:40;;;;;;;32.40;21.38;;;;;;;;;;5009516;28;20084;-61
2021/12/09 05:53:06;;;;;;;30.73;22.35;;;;;;;;;;5009483;28;20045;-61
2021/12/09 05:55:33;;;;;;;25.77;16.95;;;;;;;;;;5008239;28;20034;-61
2021/12/09 05:57:59;;;;;;;30.70;21.00;;;;;;;;;;5007022;28;20502;-61
2021/12/09 06:00:25;;;;;;;29.23;21.90;;;;;;;;;;5008174;28;20042;-61
2021/12/09 06:02:51;;;;;;;29.50;21.15;;;;;;;;;;5007916;28;20129;-61
2021/12/09 06:05:18;;;;;;;30.63;20.98;;;;;;;;;;5009223;28;20048;-61
2021/12/09 06:07:45;;;;;;;30.73;18.35;;;;;;;;;;5009166;28;20046;-61
2021/12/09 06:10:11;;;;;;;31.27;21.60;;;;;;;;;;5008336;28;20487;-61
2021/12/09 06:12:37;;;;;;;33.75;21.10;;;;;;;;;;5008767;28;20575;-61
2021/12/09 06:15:05;;;;;;;30.58;22.35;;;;;;;;;;5008822;28;20049;-62
2021/12/09 06:17:31;;;;;;;35.53;20.23;;;;;;;;;;5008218;28;20042;-60
2021/12/09 06:19:57;;;;;;;34.13;22.08;;;;;;;;;;5008599;28;20045;-61
2021/12/09 06:22:23;;;;;;;31.30;19.88;;;;;;;;;;5009599;28;20063;-61
2021/12/09 06:24:49;;;;;;;33.22;22.38;;;;;;;;;;5008687;28;20357;-60
2021/12/09 06:27:15;;;;;;;28.38;19.00;;;;;;;;;;5008043;28;20519;-61
2021/12/09 06:29:41;;;;;;;31.90;19.73;;;;;;;;;;5010084;28;20112;-63
2021/12/09 06:32:08;;;;;;;35.78;22.10;;;;;;;;;;5009683;28;20125;-61
2021/12/09 06:34:34;;;;;;;34.00;22.75;;;;;;;;;;5008299;28;20037;-61
2021/12/09 06:37:00;;;;;;;31.70;21.92;;;;;;;;;;4991794;28;20073;-61
2021/12/09 06:39:27;;;;;;;32.72;20.05;;;;;;;;;;5009268;28;20046;-61
2021/12/09 06:41:53;;;;;;;38.92;22.25;;;;;;;;;;5008408;28;20053;-61
2021/12/09 06:44:19;;;;;;;31.35;21.73;;;;;;;;;;5008038;28;20049;-60
2021/12/09 06:46:45;;;;;;;33.58;21.58;;;;;;;;;;5009650;28;20041;-61
2021/12/09 06:49:11;;;;;;;37.42;23.42;;;;;;;;;;4991491;28;20042;-61
2021/12/09 06:51:37;;;;;;;40.20;24.52;;;;;;;;;;5009868;28;20058;-60
2021/12/09 06:54:03;;;;;;;35.63;23.70;;;;;;;;;;5006739;28;20050;-61
2021/12/09 06:56:33;;;;;;;39.72;24.10;;;;;;;;;;5008495;28;20038;-61
2021/12/09 06:59:00;;;;;;;40.30;26.25;;;;;;;;;;5006916;28;20057;-61
2021/12/09 07:01:27;;;;;;;36.92;24.77;;;;;;;;;;5008525;28;20041;-62
2021/12/09 07:03:53;;;;;;;37.15;23.10;;;;;;;;;;5008466;28;20052;-62
2021/12/09 07:06:19;;;;;;;40.97;26.10;;;;;;;;;;4998482;28;20383;-61
2021/12/09 07:08:48;;;;;;;38.40;26.75;;;;;;;;;;5007672;28;20041;-61
2021/12/09 07:11:18;;;;;;;41.67;29.02;;;;;;;;;;5008575;28;20056;-61
2021/12/09 07:13:45;;;;;;;42.85;28.85;;;;;;;;;;5006059;28;20500;-61
2021/12/09 07:16:11;;;;;;;46.22;30.42;;;;;;;;;;5007503;28;20103;-61
2021/12/09 07:18:37;;;;;;;42.15;28.27;;;;;;;;;;5006227;28;20045;-60
2021/12/09 07:21:04;;;;;;;44.42;28.65;;;;;;;;;;4973466;28;20042;-61
2021/12/09 07:23:31;;;;;;;39.00;28.67;;;;;;;;;;4995944;28;20054;-62
2021/12/09 07:25:57;;;;;;;43.42;28.13;;;;;;;;;;5023208;28;20046;-61
2021/12/09 07:28:23;;;;;;;38.92;26.55;;;;;;;;;;5008014;28;20050;-60
2021/12/09 07:30:49;;;;;;;45.97;32.13;;;;;;;;;;5007258;28;20065;-61
2021/12/09 07:33:16;;;;;;;46.38;29.65;;;;;;;;;;5008487;28;20147;-61
2021/12/09 07:35:43;;;;;;;40.78;27.52;;;;;;;;;;5008695;28;20041;-62
2021/12/09 07:38:09;;;;;;;41.17;27.13;;;;;;;;;;5007331;28;20500;-61
2021/12/09 07:40:36;;;;;;;47.08;31.02;;;;;;;;;;5008693;28;20213;-60
2021/12/09 07:43:02;;;;;;;43.25;29.42;;;;;;;;;;5008717;28;20046;-60
2021/12/09 07:45:29;;;;;;;42.17;26.40;;;;;;;;;;5006694;28;20508;-60
2021/12/09 07:47:55;;;;;;;41.03;26.60;;;;;;;;;;5008367;28;20073;-60
2021/12/09 07:50:23;;;;;;;39.45;23.58;;;;;;;;;;5008550;28;20089;-60
2021/12/09 07:52:51;;;;;;;42.67;29.35;;;;;;;;;;5008680;28;20046;-60
2021/12/09 07:55:18;;;;;;;44.85;27.30;;;;;;;;;;5010298;28;20499;-60
2021/12/09 07:57:44;;;;;;;42.58;26.60;;;;;;;;;;5010462;28;20121;-61
2021/12/09 08:00:15;;;;;;;39.00;27.80;;;;;;;;;;5009935;28;20046;-60
2021/12/09 08:02:42;;;;;;;34.83;23.92;;;;;;;;;;5007980;28;20042;-60
2021/12/09 08:05:08;;;;;;;43.42;29.90;;;;;;;;;;5008068;28;20048;-61
2021/12/09 08:07:34;;;;;;;40.45;29.15;;;;;;;;;;5006491;28;20475;-61
2021/12/09 08:10:00;;;;;;;32.25;24.77;;;;;;;;;;5008642;28;20037;-61
2021/12/09 08:12:26;;;;;;;46.13;27.27;;;;;;;;;;5008580;28;20042;-61
2021/12/09 08:14:53;;;;;;;42.17;26.50;;;;;;;;;;5007096;28;20084;-62
2021/12/09 08:17:44;;;;;;;46.20;29.67;;;;;;;;;;5006916;28;20034;-62
2021/12/09 08:20:11;;;;;;;44.03;27.10;;;;;;;;;;5021262;28;20510;-61
2021/12/09 08:22:37;;;;;;;44.08;28.88;;;;;;;;;;5010055;28;20480;-62
2021/12/09 08:25:06;;;;;;;46.67;30.77;;;;;;;;;;5009546;28;20096;-62
2021/12/09 08:27:32;;;;;;;46.08;32.25;;;;;;;;;;5024350;28;20581;-62
2021/12/09 08:30:01;;;;;;;46.72;29.25;;;;;;;;;;5011052;28;20148;-61
2021/12/09 08:32:27;;;;;;;42.85;29.35;;;;;;;;;;5011293;28;20136;-61
2021/12/09 08:34:54;;;;;;;47.83;29.73;;;;;;;;;;5015007;28;20068;-61
2021/12/09 08:37:20;;;;;;;41.33;25.25;;;;;;;;;;5015519;28;20071;-62
2021/12/09 08:39:46;;;;;;;40.38;28.30;;;;;;;;;;5009351;28;20041;-62
2021/12/09 08:42:14;;;;;;;45.75;30.85;;;;;;;;;;5011424;28;20313;-61
2021/12/09 08:44:40;;;;;;;47.55;29.50;;;;;;;;;;5010496;28;20030;-61
2021/12/09 08:47:06;;;;;;;40.75;28.15;;;;;;;;;;5025668;28;20497;-60
2021/12/09 08:49:33;;;;;;;43.25;28.95;;;;;;;;;;5012093;28;20053;-61
2021/12/09 08:51:59;;;;;;;49.92;31.38;;;;;;;;;;5012439;28;20496;-61
2021/12/09 08:54:25;;;;;;;44.47;31.15;;;;;;;;;;5008381;28;20049;-61
2021/12/09 08:56:52;;;;;;;38.95;25.15;;;;;;;;;;4984807;28;20050;-61
2021/12/09 08:59:19;;;;;;;37.30;26.40;;;;;;;;;;4992309;28;20092;-61
2021/12/09 09:01:45;;;;;;;40.88;24.70;;;;;;;;;;4992738;28;20560;-60
2021/12/09 09:04:11;;;;;;;38.38;23.67;;;;;;;;;;4992675;28;20049;-61
2021/12/09 09:06:37;;;;;;;44.35;24.23;;;;;;;;;;5005607;28;20122;-61
2021/12/09 09:09:05;;;;;;;34.83;21.80;;;;;;;;;;5010831;28;20335;-61
2021/12/09 09:11:31;;;;;;;38.35;23.85;;;;;;;;;;5021782;28;20046;-60
2021/12/09 09:13:57;;;;;;;29.42;20.13;;;;;;;;;;5011329;28;20046;-62
2021/12/09 09:16:24;;;;;;;38.58;21.85;;;;;;;;;;4994395;28;20037;-62
2021/12/09 09:18:53;;;;;;;32.45;22.13;;;;;;;;;;5010814;28;20057;-62
2021/12/09 09:21:19;;;;;;;29.60;18.38;;;;;;;;;;5011655;28;20376;-62
2021/12/09 09:23:45;;;;;;;31.60;19.23;;;;;;;;;;5011896;28;20112;-62
2021/12/09 09:26:11;;;;;;;34.30;19.85;;;;;;;;;;4993832;28;20190;-62
2021/12/09 09:28:37;;;;;;;32.85;19.33;;;;;;;;;;5010181;28;20089;-62
2021/12/09 09:31:04;;;;;;;29.27;18.65;;;;;;;;;;5012016;28;20092;-62
2021/12/09 09:33:31;;;;;;;28.83;16.85;;;;;;;;;;5006477;28;20069;-62
2021/12/09 09:35:57;;;;;;;24.00;16.35;;;;;;;;;;4994050;28;20101;-62
2021/12/09 09:38:24;;;;;;;29.83;18.20;;;;;;;;;;4993318;28;20042;-62
2021/12/09 09:41:03;;;;;;;25.40;17.50;;;;;;;;;;5008452;28;20056;-62
2021/12/09 09:46:17;;;;;;;28.98;17.85;;;;;;;;;;5009484;28;20137;-62
2021/12/09 09:48:45;;;;;;;26.35;15.93;;;;;;;;;;5009650;28;20088;-62
2021/12/09 09:51:11;;;;;;;25.48;15.85;;;;;;;;;;5010447;28;20054;-61
2021/12/09 09:53:39;;;;;;;24.65;14.18;;;;;;;;;;5009518;28;20062;-62
2021/12/09 09:56:13;;;;;;;23.98;13.77;;;;;;;;;;5009470;28;20046;-62
2021/12/09 09:58:39;;;;;;;24.52;13.60;;;;;;;;;;5009384;28;20048;-62
2021/12/09 10:01:05;;;;;;;24.92;15.75;;;;;;;;;;5010819;28;20503;-62
2021/12/09 10:03:34;;;;;;;20.33;12.68;;;;;;;;;;5010113;28;20033;-62
2021/12/09 10:06:02;;;;;;;19.45;12.23;;;;;;;;;;5010670;28;20104;-62
2021/12/09 10:08:31;;;;;;;19.38;11.23;;;;;;;;;;5009271;28;20074;-62
2021/12/09 10:10:57;;;;;;;14.35;8.40;;;;;;;;;;4995007;28;20558;-62
2021/12/09 10:13:28;;;;;;;18.00;9.48;;;;;;;;;;4986256;28;20053;-62
2021/12/09 10:15:54;;;;;;;18.88;9.82;;;;;;;;;;4989126;28;20129;-62
2021/12/09 10:18:32;;;;;;;18.55;9.15;;;;;;;;;;4989465;28;20471;-62
2021/12/09 10:20:59;;;;;;;14.13;8.73;;;;;;;;;;4989493;28;20050;-62
2021/12/09 10:23:36;;;;;;;16.10;8.20;;;;;;;;;;4990745;28;20133;-62
2021/12/09 10:26:16;;;;;;;15.55;7.95;;;;;;;;;;4991199;28;20085;-62
2021/12/09 10:28:48;;;;;;;18.92;7.78;;;;;;;;;;4989547;28;20129;-62
2021/12/09 10:31:15;;;;;;;15.10;8.40;;;;;;;;;;4991254;28;20073;-62
2021/12/09 10:34:15;;;;;;;14.48;6.43;;;;;;;;;;4991011;28;20052;-62
2021/12/09 10:36:57;;;;;;;14.82;6.97;;;;;;;;;;4989997;28;20057;-62
2021/12/09 10:39:32;;;;;;;15.48;7.72;;;;;;;;;;4989255;28;20046;-62
2021/12/09 10:41:59;;;;;;;16.25;7.85;;;;;;;;;;4990766;28;20053;-62
2021/12/09 10:44:33;;;;;;;15.80;7.55;;;;;;;;;;4988892;28;20504;-62
2021/12/09 10:47:12;;;;;;;13.80;6.50;;;;;;;;;;4990326;28;20106;-62
2021/12/09 10:49:47;;;;;;;14.77;7.30;;;;;;;;;;4989352;28;20108;-62
2021/12/09 10:52:20;;;;;;;13.20;7.35;;;;;;;;;;4989085;28;20125;-62
2021/12/09 10:54:46;;;;;;;15.35;7.35;;;;;;;;;;4989436;28;20121;-62
2021/12/09 10:57:23;;;;;;;13.23;6.45;;;;;;;;;;4989085;28;20042;-62
2021/12/09 10:59:49;;;;;;;14.02;6.68;;;;;;;;;;4989486;28;20038;-62
2021/12/09 11:02:15;;;;;;;11.27;6.57;;;;;;;;;;4990264;28;20096;-62
2021/12/09 11:04:41;;;;;;;12.88;5.95;;;;;;;;;;4990732;28;20045;-62
2021/12/09 11:07:26;;;;;;;19.95;7.90;;;;;;;;;;4972820;28;20489;-61
2021/12/09 11:10:12;;;;;;;14.35;7.60;;;;;;;;;;4988969;28;20046;-61
2021/12/09 11:12:38;;;;;;;15.40;6.70;;;;;;;;;;4989005;28;20050;-60
2021/12/09 11:15:05;;;;;;;13.00;6.22;;;;;;;;;;4988780;28;20436;-61
2021/12/09 11:17:37;;;;;;;16.65;6.70;;;;;;;;;;4988486;28;20054;-61
2021/12/09 11:20:04;;;;;;;15.80;6.07;;;;;;;;;;4990258;28;20042;-61
2021/12/09 11:22:32;;;;;;;13.45;6.80;;;;;;;;;;4988630;28;20539;-61
2021/12/09 11:25:02;;;;;;;11.73;6.00;;;;;;;;;;4990132;28;20078;-61
2021/12/09 11:27:30;;;;;;;13.98;6.13;;;;;;;;;;4989555;28;20038;-62
2021/12/09 11:30:08;;;;;;;14.30;5.93;;;;;;;;;;4988432;28;20078;-61
2021/12/09 11:35:12;;;;;;;12.90;6.15;;;;;;;;;;4990055;28;20072;-61
2021/12/09 11:37:44;;;;;;;15.07;6.93;;;;;;;;;;4988616;28;20069;-61
2021/12/09 11:40:14;;;;;;;13.18;6.70;;;;;;;;;;4990462;28;20049;-61
2021/12/09 11:45:08;;;;;;;14.73;8.23;;;;;;;;;;5007718;28;20082;-61
2021/12/09 11:47:35;;;;;;;15.32;7.30;;;;;;;;;;5007013;28;20125;-61
2021/12/09 11:50:01;;;;;;;15.48;7.03;;;;;;;;;;5009426;28;20041;-61
2021/12/09 11:52:28;;;;;;;14.10;7.82;;;;;;;;;;5008203;28;20069;-61
2021/12/09 11:55:01;;;;;;;14.73;8.23;;;;;;;;;;5005232;28;20034;-61
2021/12/09 12:11:21;;;;;;;17.23;10.38;;;;;;;;;;5012421;28;20511;-61
2021/12/09 12:13:53;;;;;;;22.10;12.68;;;;;;;;;;5012946;28;20443;-61
2021/12/09 12:16:53;;;;;;;19.98;12.07;;;;;;;;;;5011693;28;20042;-62
2021/12/09 12:19:40;;;;;;;23.20;11.98;;;;;;;;;;5021290;28;20077;-62
2021/12/09 12:22:40;;;;;;;18.17;10.70;;;;;;;;;;5011496;28;20864;-62
2021/12/09 12:25:27;;;;;;;21.65;12.35;;;;;;;;;;5011539;28;20084;-61
2021/12/09 12:28:14;;;;;;;21.13;12.52;;;;;;;;;;5011962;28;20551;-62
2021/12/09 12:33:30;;;;;;;18.63;12.07;;;;;;;;;;5009447;28;20053;-62
2021/12/09 12:36:17;;;;;;;22.70;12.33;;;;;;;;;;5011503;28;20455;-62
2021/12/09 12:39:01;;;;;;;24.27;13.30;;;;;;;;;;5011480;28;20376;-62
2021/12/09 12:41:27;;;;;;;27.25;14.65;;;;;;;;;;5027545;28;20046;-62
2021/12/09 12:44:03;;;;;;;25.52;12.05;;;;;;;;;;5027622;28;20554;-61
2021/12/09 12:46:57;;;;;;;25.98;15.18;;;;;;;;;;5011384;28;20045;-61
2021/12/09 12:49:33;;;;;;;19.55;10.48;;;;;;;;;;5010700;28;20239;-61
2021/12/09 12:52:11;;;;;;;24.98;13.02;;;;;;;;;;5027033;28;20045;-62
2021/12/09 12:54:56;;;;;;;25.15;14.77;;;;;;;;;;5017673;28;20054;-61
2021/12/09 12:57:44;;;;;;;26.67;12.80;;;;;;;;;;5009762;28;20042;-62
2021/12/09 13:00:16;;;;;;;26.65;15.75;;;;;;;;;;5009750;28;20113;-62
2021/12/09 13:08:40;;;;;;;36.10;16.55;;;;;;;;;;5010699;28;20077;-62
2021/12/09 13:13:44;;;;;;;34.42;19.80;;;;;;;;;;5007359;28;20050;-60
2021/12/09 13:16:17;;;;;;;37.22;20.17;;;;;;;;;;5003866;28;20050;-61
2021/12/09 13:18:48;;;;;;;39.20;20.17;;;;;;;;;;5010244;28;20061;-61
2021/12/09 13:21:33;;;;;;;38.42;19.50;;;;;;;;;;5010060;28;20061;-60
2021/12/09 13:24:28;;;;;;;35.88;18.88;;;;;;;;;;5011289;28;20089;-61
2021/12/09 13:29:58;;;;;;;37.67;19.55;;;;;;;;;;5011494;28;20088;-60
2021/12/09 13:32:59;;;;;;;38.05;18.92;;;;;;;;;;5011517;28;20511;-60
2021/12/09 13:49:41;;;;;;;29.52;17.48;;;;;;;;;;4991824;28;20050;-60
2021/12/09 13:54:08;;;;;;;33.63;17.33;;;;;;;;;;4990664;28;20078;-61
2021/12/09 13:55:06;;;;;;;25.85;14.43;;;;;;;;;;4989489;28;20050;-61
2021/12/09 13:57:38;;;;;;;31.00;18.25;;;;;;;;;;4989604;28;20465;-61
2021/12/09 14:00:06;;;;;;;29.90;17.88;;;;;;;;;;4992611;28;20042;-61
2021/12/09 14:02:32;;;;;;;29.13;17.70;;;;;;;;;;4991277;28;20046;-61
2021/12/09 14:04:59;;;;;;;25.42;14.60;;;;;;;;;;4992509;28;20034;-61
2021/12/09 14:07:31;;;;;;;26.25;16.55;;;;;;;;;;4991944;28;20046;-61
2021/12/09 14:09:58;;;;;;;31.38;16.17;;;;;;;;;;4990718;28;20077;-60
2021/12/09 14:12:27;;;;;;;22.98;16.20;;;;;;;;;;4991863;28;20109;-60
2021/12/09 14:15:07;;;;;;;30.35;18.55;;;;;;;;;;4990049;28;20531;-60
2021/12/09 14:17:33;;;;;;;24.08;15.88;;;;;;;;;;4990283;28;20444;-61
2021/12/09 14:20:03;;;;;;;34.45;19.35;;;;;;;;;;4991205;28;20094;-60
2021/12/09 14:22:36;;;;;;;29.38;17.63;;;;;;;;;;4991564;28;20081;-60
2021/12/09 14:25:07;;;;;;;35.33;18.73;;;;;;;;;;4991363;28;20125;-60
2021/12/09 14:27:33;;;;;;;29.38;18.10;;;;;;;;;;4991567;28;20049;-60
2021/12/09 14:29:59;;;;;;;29.10;17.60;;;;;;;;;;4991496;28;20038;-60
2021/12/09 14:32:27;;;;;;;30.30;18.80;;;;;;;;;;4991400;28;20432;-60
2021/12/09 14:34:55;;;;;;;25.75;16.33;;;;;;;;;;4991475;28;20042;-60
2021/12/09 14:37:22;;;;;;;34.22;18.05;;;;;;;;;;5000390;28;20076;-60
2021/12/09 14:39:48;;;;;;;32.17;19.48;;;;;;;;;;5011031;28;20539;-60
2021/12/09 14:42:16;;;;;;;33.67;17.50;;;;;;;;;;5009756;28;20049;-60
2021/12/09 14:45:02;;;;;;;28.55;17.67;;;;;;;;;;5009202;28;20049;-60
2021/12/09 14:47:29;;;;;;;30.13;18.48;;;;;;;;;;5009812;28;20058;-61
2021/12/09 14:49:56;;;;;;;31.27;17.52;;;;;;;;;;5011214;28;20433;-62
2021/12/09 14:52:48;;;;;;;34.92;19.23;;;;;;;;;;5010445;28;20054;-61
2021/12/09 14:55:14;;;;;;;31.13;19.42;;;;;;;;;;5007455;28;20116;-61
2021/12/09 14:58:00;;;;;;;29.05;16.95;;;;;;;;;;5008667;28;20124;-61
2021/12/09 15:00:30;;;;;;;28.40;17.83;;;;;;;;;;5009405;28;20038;-61
2021/12/09 15:02:56;;;;;;;34.88;18.98;;;;;;;;;;5008531;28;20479;-61
2021/12/09 15:05:22;;;;;;;32.47;20.75;;;;;;;;;;5006965;28;20045;-62
2021/12/09 15:07:53;;;;;;;32.13;20.33;;;;;;;;;;5008533;28;20507;-62
2021/12/09 15:10:23;;;;;;;37.83;21.80;;;;;;;;;;5023757;28;20484;-63
2021/12/09 15:12:50;;;;;;;38.17;21.08;;;;;;;;;;5008437;28;20039;-62
2021/12/09 15:15:25;;;;;;;37.60;20.40;;;;;;;;;;5007646;28;20125;-62
2021/12/09 15:17:59;;;;;;;34.47;19.90;;;;;;;;;;5008117;28;20054;-61
2021/12/09 15:20:39;;;;;;;36.35;20.30;;;;;;;;;;5008494;28;20519;-61
2021/12/09 15:23:12;;;;;;;41.40;22.70;;;;;;;;;;5008157;28;20132;-62
2021/12/09 15:25:40;;;;;;;30.50;20.43;;;;;;;;;;5008628;28;20431;-62
2021/12/09 15:28:08;;;;;;;36.75;24.80;;;;;;;;;;5008091;28;20761;-61